Time;durP1;ratioP1;P1;durP2;ratioP2;P2;SDS_P1;SDS_P2;PMS_P1;PMS_P2;Temp;Humidity;BMP_temperature;BMP_pressure;BME280_temperature;BME280_humidity;BME280_pressure;Samples;Min_cycle;Max_cycle;Signal;HPM_P1;HPM_P2
2021/12/27 00:00:53;;;;;;;20.45;10.85;;;;;;;-3.86;68.94;100653.23;1699988;82;21534;-71
2021/12/27 00:03:21;;;;;;;17.00;9.53;;;;;;;-3.86;68.98;100655.39;1695217;82;21066;-71
2021/12/27 00:05:49;;;;;;;14.43;8.33;;;;;;;-3.86;69.49;100651.92;1673172;84;21022;-71
2021/12/27 00:08:15;;;;;;;15.27;9.57;;;;;;;-3.82;69.15;100659.96;1707525;82;21046;-73
2021/12/27 00:10:41;;;;;;;10.23;8.58;;;;;;;-3.83;69.22;100655.66;1696367;82;21002;-70
2021/12/27 00:13:07;;;;;;;12.23;8.23;;;;;;;-3.84;69.19;100660.05;1701822;82;21569;-70
2021/12/27 00:15:34;;;;;;;13.95;8.80;;;;;;;-3.80;69.11;100668.05;1700608;84;21501;-70
2021/12/27 00:18:00;;;;;;;14.60;9.63;;;;;;;-3.82;68.97;100669.08;1701454;82;20991;-71
2021/12/27 00:20:29;;;;;;;13.13;8.07;;;;;;;-3.88;68.90;100672.01;1712985;82;21018;-70
2021/12/27 00:22:54;;;;;;;14.03;9.23;;;;;;;-3.93;69.31;100677.50;1696996;82;21530;-72
2021/12/27 00:25:21;;;;;;;16.62;10.93;;;;;;;-3.96;69.37;100682.39;1709322;82;21026;-71
2021/12/27 00:27:49;;;;;;;17.67;9.43;;;;;;;-3.95;69.43;100681.95;1703583;82;22072;-70
2021/12/27 00:30:16;;;;;;;16.80;9.50;;;;;;;-3.91;69.59;100689.97;1705416;82;21103;-71
2021/12/27 00:32:43;;;;;;;15.20;9.33;;;;;;;-3.86;69.61;100675.36;1700702;82;21017;-79
2021/12/27 00:35:12;;;;;;;14.67;9.07;;;;;;;-3.81;69.68;100685.06;1710724;82;21065;-72
2021/12/27 00:37:39;;;;;;;12.03;8.90;;;;;;;-3.79;69.60;100692.33;1702809;82;21514;-70
2021/12/27 00:40:11;;;;;;;15.00;9.70;;;;;;;-3.80;69.64;100690.67;1683723;84;21003;-73
2021/12/27 00:42:39;;;;;;;10.70;8.63;;;;;;;-3.79;69.43;100686.64;1701150;82;21569;-70
2021/12/27 00:45:07;;;;;;;16.63;8.57;;;;;;;-3.85;69.36;100687.00;1707074;82;21494;-71
2021/12/27 00:47:34;;;;;;;18.03;10.13;;;;;;;-3.87;69.58;100684.95;1711936;84;21030;-70
2021/12/27 00:50:01;;;;;;;12.98;8.95;;;;;;;-3.86;69.70;100690.55;1695900;82;21014;-72
2021/12/27 00:52:30;;;;;;;15.63;8.73;;;;;;;-3.84;69.68;100686.09;1695582;82;21098;-70
2021/12/27 00:54:56;;;;;;;12.63;9.67;;;;;;;-3.81;69.52;100686.37;1705978;82;21037;-70
2021/12/27 00:57:22;;;;;;;12.37;9.63;;;;;;;-3.83;69.49;100688.22;1704323;82;21006;-70
2021/12/27 00:59:48;;;;;;;11.95;8.90;;;;;;;-3.80;69.34;100691.50;1695746;82;20995;-76
2021/12/27 01:02:15;;;;;;;14.95;9.45;;;;;;;-3.82;69.42;100692.05;1710011;82;21559;-72
2021/12/27 01:04:41;;;;;;;14.98;9.55;;;;;;;-3.82;69.43;100689.92;1691579;84;21527;-71
2021/12/27 01:07:07;;;;;;;14.00;10.38;;;;;;;-3.84;69.70;100689.14;1700889;82;21132;-71
2021/12/27 01:09:57;;;;;;;13.93;9.13;;;;;;;-3.84;69.54;100684.79;1700979;82;21120;-71
2021/12/27 01:15:08;;;;;;;13.50;9.90;;;;;;;-3.86;69.64;100686.64;1702064;82;21057;-72
2021/12/27 01:17:23;;;;;;;18.90;11.37;;;;;;;-3.82;69.82;100688.61;1705199;82;21081;-70
2021/12/27 01:19:51;;;;;;;15.57;10.23;;;;;;;-3.82;69.90;100682.11;1705373;82;21557;-70
2021/12/27 01:22:17;;;;;;;14.73;10.72;;;;;;;-3.81;69.67;100683.77;1702225;82;21022;-70
2021/12/27 01:24:43;;;;;;;14.65;10.43;;;;;;;-3.81;69.56;100688.50;1697582;82;21088;-70
2021/12/27 01:27:09;;;;;;;16.00;7.92;;;;;;;-3.79;69.66;100693.16;1706569;82;20999;-72
2021/12/27 01:29:36;;;;;;;;;;;;;;;-3.78;69.61;100692.25;1709445;82;21536;-71
2021/12/27 01:32:02;;;;;;;15.30;9.60;;;;;;;-3.79;69.86;100689.25;1696767;82;20232;-74
2021/12/27 01:34:31;;;;;;;12.20;8.97;;;;;;;-3.93;69.88;100690.05;1703196;82;21145;-69
2021/12/27 01:36:57;;;;;;;14.17;9.53;;;;;;;-3.89;69.83;100707.64;1707162;82;21038;-72
2021/12/27 01:39:25;;;;;;;19.53;10.30;;;;;;;-3.95;69.89;100717.11;1697679;82;21588;-70
2021/12/27 01:41:52;;;;;;;13.60;9.15;;;;;;;-3.99;69.97;100715.61;1705900;82;21035;-70
2021/12/27 01:44:19;;;;;;;14.63;9.80;;;;;;;-3.97;70.08;100709.84;1697944;82;20979;-70
2021/12/27 01:46:45;;;;;;;17.73;10.28;;;;;;;-3.98;69.91;100713.36;1706663;82;20975;-70
2021/12/27 01:49:11;;;;;;;18.30;10.55;;;;;;;-4.01;70.10;100717.43;1710081;82;20991;-71
2021/12/27 01:51:40;;;;;;;17.20;11.40;;;;;;;-3.97;70.14;100713.75;1712612;82;21045;-69
2021/12/27 01:57:02;;;;;;;15.40;10.57;;;;;;;-3.93;70.45;100709.58;1736619;78;23432;-70
2021/12/27 01:59:29;;;;;;;12.63;8.33;;;;;;;-3.95;70.41;100715.81;1695619;83;21120;-71
2021/12/27 02:01:57;;;;;;;15.37;11.30;;;;;;;-4.00;69.94;100723.86;1699994;83;21063;-74
2021/12/27 02:04:24;;;;;;;13.80;9.07;;;;;;;-4.06;70.15;100728.58;1706066;83;21024;-70
2021/12/27 02:06:51;;;;;;;17.40;9.70;;;;;;;-4.13;70.31;100722.86;1703909;83;21055;-69
2021/12/27 02:09:28;;;;;;;16.23;10.68;;;;;;;-4.18;70.60;100724.87;1706204;82;20997;-70
2021/12/27 02:11:50;;;;;;;19.80;11.20;;;;;;;-4.20;70.77;100718.47;1704166;82;21053;-73
2021/12/27 02:14:17;;;;;;;15.57;11.80;;;;;;;-4.20;70.83;100717.61;1697608;83;21012;-71
2021/12/27 02:16:44;;;;;;;17.70;10.87;;;;;;;-4.17;71.06;100723.48;1696525;83;21056;-71
2021/12/27 02:19:10;;;;;;;14.47;8.95;;;;;;;-4.12;71.01;100729.30;1694814;83;21121;-69
2021/12/27 02:21:36;;;;;;;15.78;10.48;;;;;;;-4.08;70.86;100730.44;1694181;83;21093;-72
2021/12/27 02:24:05;;;;;;;15.30;9.68;;;;;;;-4.13;70.75;100731.50;1650860;82;21064;-74
2021/12/27 02:26:31;;;;;;;19.47;11.37;;;;;;;-4.16;70.91;100734.77;1639621;85;21025;-70
2021/12/27 02:28:58;;;;;;;;;;;;;;;-4.21;70.91;100723.28;1655518;85;21061;-71
2021/12/27 02:31:24;;;;;;;12.90;9.27;;;;;;;-4.18;71.23;100736.59;1651696;85;20115;-71
2021/12/27 02:33:51;;;;;;;16.45;10.78;;;;;;;-4.23;71.41;100738.63;1661678;85;21502;-71
2021/12/27 02:36:18;;;;;;;17.13;11.20;;;;;;;-4.26;71.29;100733.57;1670319;85;21093;-71
2021/12/27 02:38:45;;;;;;;16.50;11.65;;;;;;;-4.31;71.22;100729.93;1674203;84;21021;-70
2021/12/27 02:41:12;;;;;;;21.80;13.17;;;;;;;-4.33;71.46;100739.12;1673814;84;21058;-70
2021/12/27 02:43:43;;;;;;;26.40;12.27;;;;;;;-4.33;71.55;100734.38;1673216;84;21041;-71
2021/12/27 02:46:14;;;;;;;14.53;11.60;;;;;;;-4.32;71.76;100738.18;1683451;83;21217;-71
2021/12/27 02:48:45;;;;;;;16.40;11.70;;;;;;;-4.29;71.64;100738.49;1688297;83;21503;-70
2021/12/27 02:51:13;;;;;;;18.77;10.70;;;;;;;-4.25;71.60;100746.51;1680000;83;22140;-71
2021/12/27 02:53:39;;;;;;;17.97;10.83;;;;;;;-4.30;71.63;100736.33;1648126;85;21553;-71
2021/12/27 02:56:06;;;;;;;14.93;9.98;;;;;;;-4.36;71.58;100743.17;1631320;84;21019;-70
2021/12/27 02:58:34;;;;;;;15.97;10.67;;;;;;;-4.45;71.48;100737.63;1635413;86;21072;-71
2021/12/27 03:01:14;;;;;;;15.40;10.83;;;;;;;-4.46;71.83;100738.54;1664181;84;21017;-73
2021/12/27 03:03:41;;;;;;;15.00;10.63;;;;;;;-4.47;71.84;100743.38;1677077;84;21073;-71
2021/12/27 03:06:09;;;;;;;24.20;12.70;;;;;;;-4.53;71.80;100747.15;1675395;84;21009;-69
2021/12/27 03:08:38;;;;;;;17.47;11.77;;;;;;;-4.62;72.24;100751.06;1675556;84;21049;-70
2021/12/27 03:11:06;;;;;;;18.37;11.67;;;;;;;-4.67;72.30;100753.09;1671366;84;20985;-70
2021/12/27 03:13:37;;;;;;;18.07;12.73;;;;;;;-4.74;72.76;100756.45;1652337;85;21060;-70
2021/12/27 03:16:09;;;;;;;17.83;12.73;;;;;;;-4.77;72.84;100751.87;1646724;85;21033;-69
2021/12/27 03:18:39;;;;;;;17.70;12.67;;;;;;;-4.79;73.19;100751.12;1644765;85;21109;-77
2021/12/27 03:21:07;;;;;;;16.97;11.87;;;;;;;-4.74;73.43;100756.92;1643935;85;21101;-69
2021/12/27 03:23:34;;;;;;;16.77;11.70;;;;;;;-4.68;73.48;100754.00;1654096;84;21583;-70
2021/12/27 03:26:01;;;;;;;19.40;12.13;;;;;;;-4.60;73.40;100756.19;1653602;85;21075;-69
2021/12/27 03:28:29;;;;;;;20.27;11.20;;;;;;;-4.54;73.20;100759.77;1654748;85;21112;-69
2021/12/27 03:30:57;;;;;;;18.70;13.83;;;;;;;-4.50;73.09;100765.21;1652592;85;22157;-69
2021/12/27 03:33:26;;;;;;;22.23;11.53;;;;;;;-4.41;72.88;100761.26;1655347;84;21036;-70
2021/12/27 03:36:05;;;;;;;20.33;13.70;;;;;;;-4.39;72.57;100761.58;1647019;85;21096;-72
2021/12/27 03:38:47;;;;;;;21.10;12.47;;;;;;;-4.40;72.44;100757.75;1595083;88;21697;-73
2021/12/27 03:41:17;;;;;;;22.47;13.43;;;;;;;-4.39;72.60;100764.62;1588916;88;21560;-71
2021/12/27 03:43:46;;;;;;;17.37;13.10;;;;;;;-4.39;72.70;100771.98;1617390;87;21086;-70
2021/12/27 03:46:12;;;;;;;;;;;;;;;-4.30;72.69;100775.84;1618284;87;21009;-72
2021/12/27 03:48:40;;;;;;;18.70;13.77;;;;;;;-4.28;72.26;100773.16;1646788;86;20154;-69
2021/12/27 03:51:06;;;;;;;17.67;13.60;;;;;;;-4.38;72.27;100772.34;1640149;87;21064;-71
2021/12/27 03:53:34;;;;;;;19.37;12.90;;;;;;;-4.39;72.45;100780.23;1639884;87;21137;-74
2021/12/27 03:56:00;;;;;;;16.73;12.70;;;;;;;-4.39;72.73;100775.89;1642519;85;21062;-71
2021/12/27 03:58:31;;;;;;;18.92;12.50;;;;;;;-4.32;72.80;100778.98;1686560;85;21574;-70
2021/12/27 04:03:22;;;;;;;17.67;12.47;;;;;;;-4.25;72.35;100783.42;1639994;86;21065;-71
2021/12/27 04:05:48;;;;;;;17.80;12.87;;;;;;;-4.24;72.19;100778.11;1647063;85;20990;-74
2021/12/27 04:08:18;;;;;;;21.77;14.57;;;;;;;-4.21;72.16;100784.93;1654937;85;20979;-76
2021/12/27 04:10:46;;;;;;;23.60;14.73;;;;;;;-4.23;72.03;100783.70;1657291;85;21097;-68
2021/12/27 04:13:13;;;;;;;22.63;14.10;;;;;;;-4.25;72.12;100782.95;1654803;82;21050;-70
2021/12/27 04:15:41;;;;;;;22.23;14.70;;;;;;;-4.22;72.38;100788.00;1619604;87;21144;-70
2021/12/27 04:18:11;;;;;;;16.80;12.28;;;;;;;-4.16;72.42;100785.53;1639679;86;21073;-70
2021/12/27 04:20:40;;;;;;;17.50;12.17;;;;;;;-4.14;72.24;100793.63;1659113;86;21090;-69
2021/12/27 04:23:08;;;;;;;20.17;14.50;;;;;;;-4.17;71.95;100791.17;1649901;85;21129;-71
2021/12/27 04:25:35;;;;;;;17.47;12.03;;;;;;;-4.18;72.00;100794.72;1610024;87;21588;-68
2021/12/27 04:28:02;;;;;;;19.43;13.70;;;;;;;-4.16;72.19;100795.47;1618018;87;21087;-69
2021/12/27 04:30:30;;;;;;;17.60;13.43;;;;;;;-4.13;72.17;100800.50;1630936;86;21510;-69
2021/12/27 04:32:56;;;;;;;18.70;12.40;;;;;;;-4.07;72.19;100806.30;1620452;87;21040;-71
2021/12/27 04:35:22;;;;;;;17.30;13.03;;;;;;;-4.02;72.13;100810.81;1630155;86;21071;-71
2021/12/27 04:37:50;;;;;;;16.45;12.63;;;;;;;-3.95;71.86;100813.47;1616040;86;21525;-68
2021/12/27 04:40:19;;;;;;;16.33;10.37;;;;;;;-3.93;71.61;100815.52;1644950;86;21022;-71
2021/12/27 04:42:51;;;;;;;21.33;12.60;;;;;;;-3.91;71.25;100822.79;1644142;86;21057;-70
2021/12/27 04:45:20;;;;;;;19.40;12.03;;;;;;;-3.94;71.15;100826.41;1660613;84;22220;-70
2021/12/27 04:47:47;;;;;;;14.55;10.05;;;;;;;-3.94;71.07;100829.45;1671245;84;21072;-70
2021/12/27 04:50:14;;;;;;;17.63;11.83;;;;;;;-3.96;70.89;100833.91;1670563;84;21484;-69
2021/12/27 04:52:42;;;;;;;14.83;10.80;;;;;;;-3.96;70.96;100837.81;1677953;84;21088;-69
2021/12/27 04:55:10;;;;;;;17.93;12.80;;;;;;;-3.96;71.12;100835.21;1675546;84;21532;-69
2021/12/27 04:57:38;;;;;;;16.77;12.27;;;;;;;-3.90;71.08;100847.89;1674186;84;21701;-70
2021/12/27 05:00:06;;;;;;;17.37;12.30;;;;;;;-3.87;70.99;100845.13;1678174;84;21457;-68
2021/12/27 05:02:33;;;;;;;16.90;12.20;;;;;;;-3.83;70.88;100841.91;1674642;84;21100;-69
2021/12/27 05:05:00;;;;;;;15.60;10.78;;;;;;;-3.85;70.60;100844.59;1673172;84;21054;-68
2021/12/27 05:07:26;;;;;;;14.63;11.00;;;;;;;-3.88;70.87;100848.68;1672500;84;21110;-68
2021/12/27 05:09:52;;;;;;;16.25;12.53;;;;;;;-3.91;70.87;100844.92;1675399;84;21200;-72
2021/12/27 05:12:18;;;;;;;17.80;12.53;;;;;;;-3.99;70.82;100852.33;1691669;83;21013;-71
2021/12/27 05:14:44;;;;;;;20.92;14.87;;;;;;;-4.01;71.11;100853.70;1672815;84;21023;-70
2021/12/27 05:17:11;;;;;;;16.95;12.33;;;;;;;-3.99;71.34;100855.76;1680072;84;21071;-69
2021/12/27 05:19:37;;;;;;;20.57;13.10;;;;;;;-3.95;71.19;100861.17;1678452;84;21062;-70
2021/12/27 05:22:03;;;;;;;17.75;13.85;;;;;;;-3.96;71.15;100858.17;1682131;84;21045;-70
2021/12/27 05:24:31;;;;;;;18.27;12.40;;;;;;;-3.94;71.21;100860.70;1673205;84;21018;-72
2021/12/27 05:26:57;;;;;;;24.87;14.33;;;;;;;-3.91;71.30;100869.67;1677771;84;21034;-69
2021/12/27 05:29:23;;;;;;;23.55;16.75;;;;;;;-3.97;71.16;100859.59;1647604;86;21013;-69
2021/12/27 05:31:51;;;;;;;21.60;14.60;;;;;;;-4.11;71.40;100868.11;1662333;86;21179;-71
2021/12/27 05:34:18;;;;;;;19.47;14.43;;;;;;;-4.19;71.71;100872.42;1665214;84;21036;-71
2021/12/27 05:36:45;;;;;;;22.90;14.60;;;;;;;-4.22;71.83;100872.61;1706062;83;21042;-69
2021/12/27 05:39:16;;;;;;;23.85;15.88;;;;;;;-4.33;72.30;100873.16;1704957;83;21101;-70
2021/12/27 05:41:42;;;;;;;21.73;15.50;;;;;;;-4.46;72.58;100873.41;1689954;85;21568;-71
2021/12/27 05:44:11;;;;;;;20.62;13.32;;;;;;;-4.53;72.90;100884.58;1689093;83;21082;-69
2021/12/27 05:46:38;;;;;;;26.20;15.77;;;;;;;-4.56;73.43;100888.66;1679174;83;21062;-70
2021/12/27 05:49:04;;;;;;;;;;;;;;;-4.62;73.69;100892.02;1688269;83;21076;-71
2021/12/27 05:51:30;;;;;;;20.03;13.67;;;;;;;-4.68;73.83;100896.23;1684981;83;20455;-69
2021/12/27 05:53:56;;;;;;;25.30;17.70;;;;;;;-4.73;74.27;100893.84;1669856;84;21548;-69
2021/12/27 05:56:25;;;;;;;21.00;13.40;;;;;;;-4.73;74.18;100899.91;1668266;84;20994;-71
2021/12/27 05:58:52;;;;;;;22.40;14.07;;;;;;;-4.73;74.34;100899.91;1669011;85;21506;-69
2021/12/27 06:01:18;;;;;;;24.18;16.05;;;;;;;-4.72;74.43;100902.05;1668249;84;21543;-72
2021/12/27 06:03:44;;;;;;;25.52;15.85;;;;;;;-4.67;74.54;100903.96;1670960;84;21023;-68
2021/12/27 06:06:10;;;;;;;20.85;15.72;;;;;;;-4.66;74.26;100910.00;1670982;85;21105;-69
2021/12/27 06:08:37;;;;;;;22.27;16.55;;;;;;;-4.67;74.27;100906.56;1674659;84;20998;-83
2021/12/27 06:11:03;;;;;;;30.08;16.55;;;;;;;-4.63;74.51;100915.89;1670962;84;21086;-70
2021/12/27 06:13:29;;;;;;;24.47;18.35;;;;;;;-4.60;74.46;100913.12;1681770;84;21050;-71
2021/12/27 06:15:56;;;;;;;24.67;16.75;;;;;;;-4.56;74.52;100912.07;1681089;84;21173;-72
2021/12/27 06:18:24;;;;;;;23.17;15.40;;;;;;;-4.53;74.38;100919.70;1681850;84;21003;-72
2021/12/27 06:20:51;;;;;;;22.48;15.38;;;;;;;-4.56;74.16;100921.17;1681379;84;21086;-72
2021/12/27 06:23:17;;;;;;;22.87;16.45;;;;;;;-4.56;74.14;100922.48;1676344;84;21005;-74
2021/12/27 06:25:46;;;;;;;21.15;15.30;;;;;;;-4.58;74.05;100920.38;1669759;84;21128;-73
2021/12/27 06:28:12;;;;;;;20.00;13.37;;;;;;;-4.54;74.16;100921.94;1666077;85;21379;-72
2021/12/27 06:30:42;;;;;;;26.47;16.43;;;;;;;-4.51;74.15;100923.53;1668196;85;21599;-72
2021/12/27 06:33:09;;;;;;;26.43;15.33;;;;;;;-4.50;74.03;100927.37;1667127;85;21075;-72
2021/12/27 06:35:35;;;;;;;20.97;15.43;;;;;;;-4.54;74.20;100926.28;1682508;84;21058;-72
2021/12/27 06:38:01;;;;;;;23.35;16.77;;;;;;;-4.57;74.35;100924.69;1681764;85;20998;-72
2021/12/27 06:40:27;;;;;;;21.77;16.02;;;;;;;-4.54;74.50;100930.19;1682622;84;21023;-73
2021/12/27 06:42:54;;;;;;;19.20;14.47;;;;;;;-4.50;74.40;100928.67;1684619;84;21109;-72
2021/12/27 06:45:21;;;;;;;21.17;14.03;;;;;;;-4.50;74.40;100931.27;1683872;84;20967;-72
2021/12/27 06:47:48;;;;;;;27.73;16.67;;;;;;;-4.50;74.44;100933.04;1684603;84;21501;-73
2021/12/27 06:50:14;;;;;;;25.12;16.20;;;;;;;-4.53;74.44;100937.92;1682232;84;21070;-72
2021/12/27 06:52:42;;;;;;;21.20;14.25;;;;;;;-4.58;74.31;100935.99;1680809;84;21058;-71
2021/12/27 06:55:11;;;;;;;28.13;16.83;;;;;;;-4.60;74.60;100940.91;1681656;84;21078;-67
2021/12/27 06:57:40;;;;;;;22.20;16.00;;;;;;;-4.61;74.55;100941.84;1679698;84;21068;-70
2021/12/27 07:00:11;;;;;;;28.30;16.13;;;;;;;-4.61;74.77;100944.44;1681815;84;21061;-73
2021/12/27 07:02:37;;;;;;;26.03;17.73;;;;;;;-4.62;74.83;100934.47;1663647;84;21092;-72
2021/12/27 07:05:06;;;;;;;;;;;;;;;-4.65;74.93;100941.58;1662443;85;21040;-73
2021/12/27 07:07:32;;;;;;;25.77;16.27;;;;;;;-4.64;75.35;100938.91;1662196;85;20161;-74
2021/12/27 07:09:58;;;;;;;24.23;17.12;;;;;;;-4.65;75.19;100942.45;1663037;84;21067;-72
2021/12/27 07:12:25;;;;;;;29.18;17.73;;;;;;;-4.69;75.22;100943.48;1664752;83;20999;-72
2021/12/27 07:14:53;;;;;;;25.45;16.62;;;;;;;-4.72;75.63;100948.39;1661128;84;21067;-73
2021/12/27 07:17:20;;;;;;;23.33;16.60;;;;;;;-4.72;75.68;100947.56;1672103;84;21091;-77
2021/12/27 07:19:47;;;;;;;22.63;15.43;;;;;;;-4.72;75.85;100947.56;1669287;84;21649;-73
2021/12/27 07:22:13;;;;;;;23.45;15.95;;;;;;;-4.64;75.78;100949.78;1665724;84;21035;-71
2021/12/27 07:24:39;;;;;;;20.75;13.18;;;;;;;-4.58;75.62;100948.17;1662624;84;21060;-70
2021/12/27 07:27:05;;;;;;;22.80;16.60;;;;;;;-4.53;75.33;100957.91;1670828;84;21531;-70
2021/12/27 07:29:32;;;;;;;21.48;14.03;;;;;;;-4.55;75.29;100951.47;1660251;84;21058;-70
2021/12/27 07:31:58;;;;;;;20.40;14.18;;;;;;;-4.56;75.48;100963.24;1662675;84;21024;-70
2021/12/27 07:34:27;;;;;;;22.52;14.98;;;;;;;-4.58;75.19;100962.02;1659420;84;21102;-70
2021/12/27 07:36:55;;;;;;;22.73;13.73;;;;;;;-4.63;75.15;100964.02;1657803;84;21105;-70
2021/12/27 07:39:24;;;;;;;21.67;15.50;;;;;;;-4.68;75.35;100968.60;1656635;84;21176;-71
2021/12/27 07:41:52;;;;;;;20.50;13.03;;;;;;;-4.72;75.43;100965.30;1668362;84;21571;-70
2021/12/27 07:44:18;;;;;;;22.83;14.80;;;;;;;-4.69;75.64;100970.80;1670958;84;21563;-70
2021/12/27 07:46:46;;;;;;;21.93;15.55;;;;;;;-4.68;75.66;100965.16;1681477;84;21145;-71
2021/12/27 07:49:15;;;;;;;26.27;16.33;;;;;;;-4.66;75.85;100964.62;1673605;84;21105;-69
2021/12/27 07:51:44;;;;;;;25.00;17.37;;;;;;;-4.63;75.87;100973.13;1678877;84;21007;-70
2021/12/27 07:54:11;;;;;;;23.53;15.87;;;;;;;-4.62;75.89;100977.39;1676577;84;21575;-71
2021/12/27 07:56:37;;;;;;;22.00;15.80;;;;;;;-4.64;75.92;100979.23;1672196;84;21081;-70
2021/12/27 07:59:04;;;;;;;25.75;17.30;;;;;;;-4.65;75.82;100981.47;1668213;84;21050;-70
2021/12/27 08:01:33;;;;;;;20.83;15.10;;;;;;;-4.64;75.92;100983.13;1668633;84;21033;-70
2021/12/27 08:03:59;;;;;;;24.63;16.73;;;;;;;-4.62;76.05;100980.00;1664776;84;21041;-71
2021/12/27 08:06:27;;;;;;;;;;;;;;;-4.65;76.02;100963.70;1668157;84;21040;-71
2021/12/27 08:08:54;;;;;;;21.55;14.87;;;;;;;-4.52;75.98;100982.55;1667728;84;20133;-72
2021/12/27 08:11:21;;;;;;;28.07;18.17;;;;;;;-4.50;76.06;100975.97;1668222;84;21120;-70
2021/12/27 08:13:48;;;;;;;27.02;18.70;;;;;;;-4.47;75.61;100974.97;1658651;84;21046;-71
2021/12/27 08:16:17;;;;;;;25.67;17.40;;;;;;;-4.50;75.71;100972.07;1679462;84;21061;-70
2021/12/27 08:18:46;;;;;;;25.90;17.47;;;;;;;-4.45;75.85;100971.36;1682189;84;21002;-72
2021/12/27 08:21:11;;;;;;;23.30;18.13;;;;;;;-4.43;75.65;100975.19;1683185;84;21038;-70
2021/12/27 08:23:38;;;;;;;25.12;17.20;;;;;;;-4.41;75.62;100975.95;1681349;84;21022;-71
2021/12/27 08:26:06;;;;;;;22.97;15.90;;;;;;;-4.36;75.68;100981.78;1678541;84;21133;-69
2021/12/27 08:28:32;;;;;;;23.47;15.58;;;;;;;-4.33;75.34;100981.64;1680425;84;21062;-70
2021/12/27 08:30:58;;;;;;;25.92;19.02;;;;;;;-4.35;75.37;100981.71;1683460;84;21562;-71
2021/12/27 08:33:25;;;;;;;27.70;18.63;;;;;;;-4.38;75.30;100984.45;1678760;84;20980;-72
2021/12/27 08:35:51;;;;;;;23.05;15.32;;;;;;;-4.76;75.59;100921.33;1682527;84;20990;-70
2021/12/27 08:38:18;;;;;;;23.65;15.08;;;;;;;-4.39;75.39;100983.22;1680020;84;21027;-68
2021/12/27 08:40:45;;;;;;;20.83;15.00;;;;;;;-4.46;75.51;100984.00;1682950;84;21018;-71
2021/12/27 08:43:11;;;;;;;24.77;14.73;;;;;;;-4.56;75.69;100982.32;1681213;84;21153;-71
2021/12/27 08:45:40;;;;;;;24.07;15.27;;;;;;;-4.63;75.81;100981.37;1681146;84;21097;-71
2021/12/27 08:48:06;;;;;;;23.37;15.87;;;;;;;-4.71;75.96;100986.51;1678503;84;21555;-72
2021/12/27 08:50:33;;;;;;;22.95;15.00;;;;;;;-4.68;76.24;100985.51;1683372;85;21061;-71
2021/12/27 08:53:00;;;;;;;24.60;17.07;;;;;;;-4.68;76.38;100976.87;1678353;84;21111;-72
2021/12/27 08:55:26;;;;;;;29.05;18.57;;;;;;;-4.73;76.51;100983.14;1682852;84;21048;-72
2021/12/27 08:57:52;;;;;;;25.80;18.67;;;;;;;-4.72;76.67;100985.28;1683061;84;21097;-71
2021/12/27 09:00:18;;;;;;;24.47;17.42;;;;;;;-4.75;76.73;100974.55;1684197;84;21166;-70
2021/12/27 09:02:46;;;;;;;21.35;15.60;;;;;;;-4.78;76.80;100979.08;1683651;84;21102;-72
2021/12/27 09:05:13;;;;;;;26.83;20.70;;;;;;;-4.81;77.04;100977.45;1681331;84;21566;-72
2021/12/27 09:07:39;;;;;;;26.50;16.57;;;;;;;-4.81;77.08;100972.72;1682991;84;21058;-70
2021/12/27 09:10:07;;;;;;;25.37;18.82;;;;;;;-4.75;77.16;100976.31;1677951;84;21018;-70
2021/12/27 09:12:38;;;;;;;22.60;16.43;;;;;;;-4.70;77.10;100973.03;1682782;84;21002;-64
2021/12/27 09:15:05;;;;;;;26.97;16.53;;;;;;;-4.63;77.02;100968.36;1680307;84;21717;-63
2021/12/27 09:17:31;;;;;;;26.03;17.20;;;;;;;-4.56;76.96;100973.22;1680825;84;21525;-65
2021/12/27 09:19:57;;;;;;;26.40;17.20;;;;;;;-4.53;76.67;100975.64;1683762;84;21872;-66
2021/12/27 09:22:23;;;;;;;29.75;18.85;;;;;;;-4.53;76.53;100978.25;1676644;84;22027;-65
2021/12/27 09:24:50;;;;;;;23.55;16.45;;;;;;;-4.56;76.47;100969.31;1682672;84;21074;-67
2021/12/27 09:27:18;;;;;;;22.83;16.87;;;;;;;-4.54;76.65;100968.77;1683929;84;21031;-66
2021/12/27 09:29:49;;;;;;;24.07;16.85;;;;;;;-4.51;76.60;100962.09;1680822;84;21022;-67
2021/12/27 09:32:16;;;;;;;24.60;15.30;;;;;;;-4.52;76.53;100962.16;1683557;84;21018;-67
2021/12/27 09:34:42;;;;;;;26.20;17.40;;;;;;;-4.50;76.51;100962.97;1667636;84;21030;-66
2021/12/27 09:37:08;;;;;;;30.05;18.20;;;;;;;-4.52;76.48;100962.16;1661110;85;21091;-68
2021/12/27 09:39:35;;;;;;;27.82;18.02;;;;;;;-4.51;76.48;100966.47;1661397;85;21176;-65
2021/12/27 09:42:04;;;;;;;26.30;18.60;;;;;;;-4.48;76.50;100960.26;1663168;85;21055;-75
2021/12/27 09:44:31;;;;;;;24.07;17.00;;;;;;;-4.45;76.40;100958.81;1662033;83;20960;-72
2021/12/27 09:46:57;;;;;;;25.77;18.48;;;;;;;-4.40;76.45;100959.44;1696144;83;21669;-68
2021/12/27 09:49:29;;;;;;;27.13;18.65;;;;;;;-4.36;76.21;100965.70;1689355;83;21004;-75
2021/12/27 09:51:59;;;;;;;30.57;18.50;;;;;;;-4.37;76.12;100963.16;1692354;83;21550;-69
2021/12/27 09:54:27;;;;;;;27.83;20.07;;;;;;;-4.36;75.91;100959.19;1692635;83;20972;-72
2021/12/27 09:56:56;;;;;;;31.80;21.37;;;;;;;-4.33;76.00;100957.75;1663779;84;22151;-71
2021/12/27 09:59:23;;;;;;;34.37;21.47;;;;;;;-4.31;75.94;100960.28;1668467;84;20998;-74
2021/12/27 10:01:52;;;;;;;29.27;20.10;;;;;;;-4.34;75.90;100957.81;1679737;84;21033;-72
2021/12/27 10:04:19;;;;;;;26.83;18.43;;;;;;;-4.41;76.12;100964.24;1696373;83;21067;-71
2021/12/27 10:06:45;;;;;;;26.30;18.20;;;;;;;-4.44;76.17;100959.21;1697736;84;21070;-71
2021/12/27 10:09:11;;;;;;;27.95;18.35;;;;;;;-4.44;76.54;100963.95;1696479;84;20999;-70
2021/12/27 10:11:42;;;;;;;27.30;17.87;;;;;;;-4.46;76.35;100964.48;1698025;83;21122;-70
2021/12/27 10:14:21;;;;;;;28.70;17.43;;;;;;;-4.45;76.67;100964.86;1700499;83;21015;-71
2021/12/27 10:17:11;;;;;;;27.87;17.90;;;;;;;-4.49;76.77;100969.83;1682076;84;21087;-70
2021/12/27 10:19:38;;;;;;;33.53;19.60;;;;;;;-4.56;76.87;100965.84;1698366;84;21016;-72
2021/12/27 10:22:11;;;;;;;29.37;20.80;;;;;;;-4.64;77.06;100966.23;1698110;83;20988;-72
2021/12/27 10:24:38;;;;;;;25.67;18.23;;;;;;;-4.60;77.44;100957.81;1696683;84;21024;-71
2021/12/27 10:27:06;;;;;;;37.33;23.83;;;;;;;-4.48;77.47;100960.26;1697124;84;21945;-70
2021/12/27 10:29:37;;;;;;;41.23;24.70;;;;;;;-4.39;77.14;100967.61;1687805;84;21070;-71
2021/12/27 10:32:10;;;;;;;34.23;23.10;;;;;;;-4.37;77.09;100967.94;1695410;84;21427;-72
2021/12/27 10:34:45;;;;;;;40.87;25.27;;;;;;;-4.36;77.21;100967.47;1698289;84;21098;-70
2021/12/27 10:37:27;;;;;;;41.57;26.97;;;;;;;-4.35;76.82;100973.04;1694473;83;21077;-70
2021/12/27 10:40:09;;;;;;;35.63;23.73;;;;;;;-4.36;76.98;100970.91;1681267;83;21518;-71
2021/12/27 10:42:45;;;;;;;34.77;20.13;;;;;;;-4.78;77.12;100906.26;1696401;84;22359;-71
2021/12/27 10:45:19;;;;;;;32.50;20.32;;;;;;;-4.41;77.20;100968.15;1696800;84;21062;-70
2021/12/27 10:47:53;;;;;;;31.33;21.83;;;;;;;-4.47;77.43;100965.86;1696987;84;21035;-72
2021/12/27 10:50:31;;;;;;;31.27;21.13;;;;;;;-4.47;77.58;100965.86;1699140;84;21067;-73
2021/12/27 10:53:01;;;;;;;35.33;20.90;;;;;;;-4.47;77.64;100980.17;1696429;84;20992;-72
2021/12/27 10:55:42;;;;;;;33.73;21.07;;;;;;;-4.48;77.45;100978.04;1694551;84;20980;-71
2021/12/27 10:58:23;;;;;;;27.67;19.47;;;;;;;-4.44;77.65;100981.33;1697256;84;21573;-71
2021/12/27 11:01:00;;;;;;;36.37;21.67;;;;;;;-4.44;77.48;100980.03;1694507;84;21071;-71
2021/12/27 11:03:39;;;;;;;32.95;21.45;;;;;;;-4.47;77.42;100977.10;1679345;83;21491;-71
2021/12/27 11:06:09;;;;;;;39.43;23.30;;;;;;;-4.47;77.42;100977.10;1698331;84;21657;-71
2021/12/27 11:08:45;;;;;;;37.27;22.90;;;;;;;-4.53;77.62;100972.20;1689746;84;21027;-71
2021/12/27 11:11:14;;;;;;;40.93;23.17;;;;;;;-4.61;77.77;100970.45;1698139;84;21063;-70
2021/12/27 11:13:43;;;;;;;43.67;23.23;;;;;;;-4.63;78.10;100972.27;1699318;83;21094;-70
2021/12/27 11:16:10;;;;;;;35.80;22.83;;;;;;;-4.68;78.32;100975.57;1699334;84;21047;-71
2021/12/27 11:18:37;;;;;;;39.67;23.40;;;;;;;-4.71;78.39;100983.05;1699316;83;21219;-72
2021/12/27 11:21:11;;;;;;;34.53;21.80;;;;;;;-4.68;78.49;100982.91;1699762;83;21152;-71
2021/12/27 11:23:38;;;;;;;37.23;23.67;;;;;;;-4.64;78.48;100973.20;1686635;84;21058;-70